Terminal Aerodrome Forecast
Issued by NWS

Home | Current Version | Previous Version | Graphics & Text | Print | Product List | Glossary On
Versions: 1 2 3 4 5 6 7 8 9 10 11 12 13 14 15 16 17
000
FTUS42 KMHX 272150 AAA
TAFOAJ
TAF AMD
KOAJ 272150Z 2722/2818 VRB04KT P6SM VCSH BKN050
      TEMPO 2722/2723 3SM -TSRA SCT008 BKN015CB
     FM280600 VRB03KT 3SM BR SCT007 BKN040
     FM281300 17006KT P6SM BKN040
      AMD LTD TO CLD VIS AND WIND=

USA.gov is the U.S. government's official web portal to all federal, state and local government web resources and services.